Time;durP1;ratioP1;P1;durP2;ratioP2;P2;SDS_P1;SDS_P2;PMS_P1;PMS_P2;Temp;Humidity;BMP_temperature;BMP_pressure;BME280_temperature;BME280_humidity;BME280_pressure;Samples;Min_cycle;Max_cycle;Signal;HPM_P1;HPM_P2
2023/10/25 00:00:11;;;;;;;41.35;7.38;;;23.50;91.90;;;;;;5070088;28;20020;-58
2023/10/25 00:02:37;;;;;;;44.65;6.18;;;23.50;91.90;;;;;;5070140;28;20032;-58
2023/10/25 00:05:03;;;;;;;37.20;6.90;;;23.50;92.00;;;;;;5069986;28;20472;-58
2023/10/25 00:07:28;;;;;;;26.35;5.80;;;23.50;92.10;;;;;;5067653;28;20029;-58
2023/10/25 00:09:54;;;;;;;42.47;6.68;;;23.40;92.20;;;;;;5067510;28;20033;-58
2023/10/25 00:12:21;;;;;;;26.65;5.68;;;;;;;;;;5070086;28;20029;-58
2023/10/25 00:14:47;;;;;;;28.58;5.20;;;23.40;92.20;;;;;;5069723;28;20025;-58
2023/10/25 00:17:13;;;;;;;41.67;6.88;;;23.40;92.70;;;;;;5069891;28;20031;-58
2023/10/25 00:19:38;;;;;;;31.10;6.15;;;23.30;92.80;;;;;;5070088;28;20031;-58
2023/10/25 00:22:04;;;;;;;38.35;6.28;;;23.20;92.90;;;;;;5069770;28;20031;-58
2023/10/25 00:24:30;;;;;;;29.77;6.10;;;23.10;92.90;;;;;;5069197;28;20028;-59
2023/10/25 00:27:15;;;;;;;31.83;5.68;;;23.00;92.90;;;;;;5046841;28;20519;-58
2023/10/25 00:29:41;;;;;;;34.92;7.53;;;22.90;93.00;;;;;;5046620;28;20044;-58
2023/10/25 00:32:14;;;;;;;35.45;6.18;;;22.80;93.10;;;;;;5046981;28;20044;-57
2023/10/25 00:34:40;;;;;;;37.03;6.10;;;22.80;93.30;;;;;;5047136;28;20551;-58
2023/10/25 00:37:06;;;;;;;23.05;4.93;;;22.70;93.50;;;;;;5047024;28;20415;-58
2023/10/25 00:39:31;;;;;;;28.15;4.80;;;22.70;93.50;;;;;;5046672;28;20064;-58
2023/10/25 00:41:57;;;;;;;35.97;7.18;;;22.70;96.60;;;;;;5046974;28;20041;-58
2023/10/25 00:44:23;;;;;;;27.60;5.32;;;22.70;98.30;;;;;;5047123;28;20032;-58
2023/10/25 00:46:49;;;;;;;34.60;4.53;;;22.80;98.60;;;;;;5046727;28;20429;-58
2023/10/25 00:49:16;;;;;;;23.17;4.75;;;22.80;99.10;;;;;;5046637;28;20037;-58
2023/10/25 00:51:42;;;;;;;23.33;4.63;;;22.80;99.20;;;;;;5047982;28;20025;-58
2023/10/25 00:54:09;;;;;;;24.40;4.57;;;22.90;99.50;;;;;;5046666;28;20028;-59
2023/10/25 00:56:36;;;;;;;30.13;4.65;;;22.90;99.40;;;;;;5046876;28;20164;-58
2023/10/25 00:59:02;;;;;;;37.53;5.15;;;22.80;99.60;;;;;;5046502;28;20036;-57
2023/10/25 01:01:29;;;;;;;44.78;5.85;;;22.80;99.60;;;;;;5050339;28;20032;-57
2023/10/25 01:03:55;;;;;;;44.55;7.35;;;22.80;99.80;;;;;;5069644;28;20024;-57
2023/10/25 01:06:21;;;;;;;27.63;5.00;;;22.80;99.80;;;;;;5067177;28;20021;-58
2023/10/25 01:08:47;;;;;;;27.65;5.13;;;22.80;99.90;;;;;;5069311;28;20044;-58
2023/10/25 01:11:13;;;;;;;27.15;4.68;;;;;;;;;;5069272;28;20470;-58
2023/10/25 01:13:39;;;;;;;36.17;6.47;;;22.50;94.40;;;;;;5069771;28;20025;-58
2023/10/25 01:16:04;;;;;;;30.92;5.82;;;22.40;94.70;;;;;;5069285;28;20381;-58
2023/10/25 01:18:31;;;;;;;30.45;4.72;;;22.30;94.90;;;;;;5069428;28;20025;-58
2023/10/25 01:20:57;;;;;;;30.70;4.28;;;;;;;;;;5069578;28;20028;-58
2023/10/25 01:23:23;;;;;;;24.92;5.10;;;22.20;94.80;;;;;;5069309;28;20027;-57
2023/10/25 01:25:49;;;;;;;30.08;5.70;;;22.10;95.30;;;;;;5068936;28;20024;-58
2023/10/25 01:28:15;;;;;;;28.73;5.00;;;;;;;;;;5069145;28;20039;-58
2023/10/25 01:30:41;;;;;;;27.15;4.88;;;21.90;95.50;;;;;;5069381;28;20467;-58
2023/10/25 01:33:07;;;;;;;27.55;6.07;;;21.80;96.00;;;;;;5069026;28;20025;-57
2023/10/25 01:35:34;;;;;;;33.25;7.53;;;21.70;96.40;;;;;;5069419;28;20508;-58
2023/10/25 01:38:01;;;;;;;23.63;5.53;;;21.60;96.30;;;;;;5072567;28;20098;-58
2023/10/25 01:40:27;;;;;;;26.42;4.57;;;21.60;96.30;;;;;;5072496;28;20088;-58
2023/10/25 01:42:54;;;;;;;26.30;5.90;;;21.60;96.40;;;;;;5072863;28;20044;-58
2023/10/25 01:45:24;;;;;;;23.92;4.93;;;21.60;96.60;;;;;;5069842;28;20086;-58
2023/10/25 01:47:50;;;;;;;33.35;5.28;;;21.70;96.40;;;;;;5069733;28;20052;-58
2023/10/25 01:50:18;;;;;;;31.63;6.45;;;21.70;96.60;;;;;;5069579;28;20044;-58
2023/10/25 01:52:44;;;;;;;28.65;5.75;;;21.70;96.80;;;;;;5036269;28;20491;-58
2023/10/25 01:55:10;;;;;;;36.78;5.13;;;21.70;96.80;;;;;;5069562;28;20143;-58
2023/10/25 01:57:35;;;;;;;29.88;5.65;;;21.70;96.90;;;;;;5069905;28;20030;-58
2023/10/25 02:00:03;;;;;;;29.10;4.25;;;21.70;96.80;;;;;;5035837;28;20041;-58
2023/10/25 02:02:29;;;;;;;26.23;4.47;;;21.70;96.90;;;;;;5069622;28;20062;-58
2023/10/25 02:04:54;;;;;;;26.95;5.55;;;21.70;97.10;;;;;;5069605;28;20542;-58
2023/10/25 02:07:20;;;;;;;27.23;4.40;;;21.80;97.00;;;;;;5069438;28;20060;-59
2023/10/25 02:09:48;;;;;;;19.77;4.97;;;21.80;97.10;;;;;;5068917;28;20094;-58
2023/10/25 02:12:13;;;;;;;25.35;5.75;;;21.90;97.20;;;;;;5069241;28;20021;-59
2023/10/25 02:14:40;;;;;;;30.95;4.72;;;21.80;97.20;;;;;;5069380;28;20478;-58
2023/10/25 02:17:06;;;;;;;30.52;5.25;;;;;;;;;;5071264;28;20029;-58
2023/10/25 02:19:32;;;;;;;22.08;4.43;;;21.60;97.70;;;;;;5071855;28;20030;-58
2023/10/25 02:21:59;;;;;;;32.22;5.65;;;21.50;98.50;;;;;;5071878;28;20670;-58
2023/10/25 02:24:25;;;;;;;30.83;4.97;;;21.50;99.50;;;;;;5072023;28;20025;-58
2023/10/25 02:26:51;;;;;;;36.33;7.22;;;;;;;;;;5071771;28;20048;-57
2023/10/25 02:29:17;;;;;;;39.13;6.80;;;21.20;98.20;;;;;;5071412;28;20037;-58
2023/10/25 02:31:43;;;;;;;32.40;5.28;;;21.30;98.50;;;;;;5071595;28;20536;-58
2023/10/25 02:34:09;;;;;;;31.55;5.07;;;;;;;;;;5070213;28;20025;-58
2023/10/25 02:36:35;;;;;;;45.25;9.13;;;20.90;99.90;;;;;;5071326;28;20113;-58
2023/10/25 02:39:01;;;;;;;33.15;5.57;;;20.70;99.90;;;;;;5071330;28;20067;-58
2023/10/25 02:41:27;;;;;;;41.17;5.97;;;;;;;;;;5071414;28;20051;-57
2023/10/25 02:43:59;;;;;;;31.08;5.50;;;20.40;99.90;;;;;;5069711;28;20048;-58
2023/10/25 02:46:24;;;;;;;;;;;20.30;99.90;;;;;;5070383;28;20085;-58
2023/10/25 02:48:51;;;;;;;22.48;3.67;;;20.30;99.90;;;;;;5071531;28;20085;-58
2023/10/25 02:51:17;;;;;;;15.55;3.30;;;20.30;99.90;;;;;;5070910;28;20471;-58
2023/10/25 02:53:43;;;;;;;14.30;3.55;;;20.30;99.90;;;;;;5070694;28;20094;-58
2023/10/25 02:56:10;;;;;;;17.90;4.57;;;20.40;99.90;;;;;;5070729;28;20376;-59
2023/10/25 02:58:36;;;;;;;16.42;2.75;;;20.40;99.90;;;;;;5071236;28;20074;-58
2023/10/25 03:01:01;;;;;;;30.40;3.85;;;20.40;99.90;;;;;;5071036;28;20541;-58
2023/10/25 03:03:29;;;;;;;15.75;3.00;;;20.40;99.90;;;;;;5070834;28;20036;-59
2023/10/25 03:05:55;;;;;;;15.25;2.65;;;20.40;99.90;;;;;;5071450;28;20071;-58
2023/10/25 03:08:21;;;;;;;16.15;2.95;;;20.40;99.90;;;;;;5070656;28;20475;-57
2023/10/25 03:10:47;;;;;;;17.23;4.68;;;20.40;99.90;;;;;;5070988;28;20063;-58
2023/10/25 03:13:13;;;;;;;16.48;3.83;;;20.50;99.90;;;;;;5070685;28;20447;-58
2023/10/25 03:15:39;;;;;;;18.30;4.15;;;20.40;99.90;;;;;;5070970;28;20112;-58
2023/10/25 03:18:05;;;;;;;14.98;3.22;;;20.40;99.90;;;;;;5070792;28;20020;-58
2023/10/25 03:20:32;;;;;;;9.73;2.35;;;20.30;99.90;;;;;;5070794;28;20028;-58
2023/10/25 03:22:58;;;;;;;10.88;2.30;;;;;;;;;;5070895;28;20446;-58
2023/10/25 03:25:24;;;;;;;8.90;2.38;;;20.40;99.90;;;;;;5070572;28;20028;-58
2023/10/25 03:27:50;;;;;;;12.45;2.15;;;19.90;99.90;;;;;;5070648;28;20028;-58
2023/10/25 03:30:16;;;;;;;5.50;1.48;;;19.70;99.90;;;;;;5069981;28;20032;-58
2023/10/25 03:32:43;;;;;;;9.13;2.55;;;19.60;99.90;;;;;;5070699;28;20025;-58
2023/10/25 03:35:09;;;;;;;7.22;1.55;;;19.60;99.90;;;;;;5070726;28;20120;-58
2023/10/25 03:37:35;;;;;;;10.63;2.38;;;19.60;99.90;;;;;;5070286;28;20567;-58
2023/10/25 03:40:01;;;;;;;10.75;1.45;;;19.50;99.90;;;;;;5070326;28;20044;-58
2023/10/25 03:42:27;;;;;;;11.55;1.38;;;19.50;99.90;;;;;;5070109;28;20031;-59
2023/10/25 03:44:52;;;;;;;8.88;1.50;;;19.40;99.90;;;;;;5070561;28;20028;-58
2023/10/25 03:47:18;;;;;;;8.85;1.30;;;19.40;99.90;;;;;;5070256;28;20051;-58
2023/10/25 03:49:44;;;;;;;8.00;1.40;;;19.20;99.90;;;;;;5070513;28;20032;-59
2023/10/25 03:52:10;;;;;;;9.23;1.88;;;19.20;99.90;;;;;;5070606;28;20539;-58
2023/10/25 03:54:39;;;;;;;6.15;1.38;;;19.20;99.90;;;;;;5050466;28;20063;-58
2023/10/25 03:57:05;;;;;;;9.15;1.65;;;19.30;99.90;;;;;;5070196;28;20025;-58
2023/10/25 03:59:31;;;;;;;6.97;1.42;;;19.30;99.90;;;;;;5069472;28;20028;-58
2023/10/25 04:01:57;;;;;;;10.68;1.50;;;19.20;99.90;;;;;;5070271;28;20036;-59
2023/10/25 04:04:23;;;;;;;4.90;1.33;;;19.20;99.90;;;;;;5069861;28;20020;-58
2023/10/25 04:06:48;;;;;;;6.70;1.50;;;19.30;99.90;;;;;;5068387;28;20028;-58
2023/10/25 04:09:14;;;;;;;7.00;1.70;;;19.20;99.90;;;;;;5070010;28;20035;-59
2023/10/25 04:11:40;;;;;;;5.28;1.30;;;19.20;99.90;;;;;;5069968;28;20073;-58
2023/10/25 04:14:05;;;;;;;4.57;1.60;;;19.20;99.90;;;;;;5069800;28;20020;-58
2023/10/25 04:16:31;;;;;;;4.60;1.42;;;19.20;99.90;;;;;;5067026;28;20036;-58
2023/10/25 04:18:57;;;;;;;5.20;1.35;;;19.20;99.90;;;;;;5050317;28;20044;-58
2023/10/25 04:21:23;;;;;;;8.73;2.20;;;19.30;99.90;;;;;;5069780;28;20052;-59
2023/10/25 04:23:48;;;;;;;6.60;1.70;;;19.30;99.90;;;;;;5069907;28;20021;-58
2023/10/25 04:26:15;;;;;;;9.40;1.80;;;19.40;99.90;;;;;;5069657;28;20074;-58
2023/10/25 04:28:42;;;;;;;12.18;1.98;;;19.40;99.90;;;;;;5068812;28;20051;-59
2023/10/25 04:31:09;;;;;;;7.65;1.85;;;19.30;99.90;;;;;;5067502;28;20086;-59
2023/10/25 04:33:35;;;;;;;8.30;2.00;;;19.40;99.90;;;;;;5067160;28;20017;-59
2023/10/25 04:36:00;;;;;;;8.77;1.48;;;19.30;99.90;;;;;;5050655;28;20673;-57
2023/10/25 04:38:26;;;;;;;10.20;1.50;;;19.30;99.90;;;;;;5069203;28;20024;-59
2023/10/25 04:40:53;;;;;;;5.63;1.58;;;19.30;99.90;;;;;;5069454;28;20052;-59
2023/10/25 04:43:19;;;;;;;10.35;1.85;;;19.30;99.90;;;;;;5069369;28;20103;-58
2023/10/25 04:45:45;;;;;;;8.65;1.42;;;19.30;99.90;;;;;;5049907;28;20132;-58
2023/10/25 04:48:11;;;;;;;5.43;1.38;;;19.30;99.90;;;;;;5068815;28;20035;-58
2023/10/25 04:50:37;;;;;;;10.43;2.13;;;19.20;99.90;;;;;;5069020;28;20025;-58
2023/10/25 04:53:04;;;;;;;10.75;2.08;;;19.20;99.90;;;;;;5069285;28;20024;-57
2023/10/25 04:55:31;;;;;;;6.97;1.95;;;19.20;99.90;;;;;;5068945;28;20028;-58
2023/10/25 04:57:57;;;;;;;13.82;1.88;;;19.20;99.90;;;;;;5068996;28;20020;-58
2023/10/25 05:00:23;;;;;;;7.03;2.08;;;19.20;99.90;;;;;;5068895;28;20028;-58
2023/10/25 05:02:49;;;;;;;8.23;1.40;;;19.10;99.90;;;;;;5069072;28;20461;-57
2023/10/25 05:05:15;;;;;;;9.15;1.90;;;19.00;99.90;;;;;;5068719;28;20031;-58
2023/10/25 05:07:41;;;;;;;11.70;1.90;;;18.90;99.90;;;;;;5049721;28;20028;-58
2023/10/25 05:10:09;;;;;;;5.75;1.38;;;18.90;99.90;;;;;;5069716;28;20028;-57
2023/10/25 05:12:43;;;;;;;8.00;1.63;;;18.80;99.90;;;;;;5070240;28;20036;-58
2023/10/25 05:15:10;;;;;;;6.63;2.17;;;18.80;99.90;;;;;;5052240;28;20033;-58
2023/10/25 05:17:38;;;;;;;12.20;2.45;;;18.70;99.90;;;;;;5010519;28;20033;-58
2023/10/25 05:20:05;;;;;;;6.53;2.25;;;18.60;99.90;;;;;;5073243;28;20024;-57
2023/10/25 05:22:34;;;;;;;8.20;2.97;;;18.60;99.90;;;;;;5072730;28;20028;-60
2023/10/25 05:25:01;;;;;;;11.07;2.50;;;18.60;99.90;;;;;;5072947;28;20434;-56
2023/10/25 05:27:27;;;;;;;7.25;1.60;;;18.60;99.90;;;;;;5072463;28;20029;-58
2023/10/25 05:29:53;;;;;;;7.40;1.52;;;18.50;99.90;;;;;;5072746;28;20043;-57
2023/10/25 05:32:20;;;;;;;8.68;1.20;;;18.50;99.90;;;;;;5072146;28;20044;-57
2023/10/25 05:34:48;;;;;;;4.43;1.05;;;18.50;99.90;;;;;;5072621;28;20032;-57
2023/10/25 05:37:15;;;;;;;8.45;1.10;;;;;;;;;;5072527;28;20028;-57
2023/10/25 05:39:42;;;;;;;3.50;1.00;;;18.60;99.90;;;;;;5072203;28;20046;-57
2023/10/25 05:42:12;;;;;;;4.28;1.27;;;18.70;99.90;;;;;;5052788;28;20048;-57
2023/10/25 05:44:38;;;;;;;4.30;1.02;;;18.80;99.90;;;;;;5073791;28;20032;-56
2023/10/25 05:47:04;;;;;;;3.70;1.30;;;20.60;99.90;;;;;;5074370;28;20033;-56
2023/10/25 05:49:30;;;;;;;2.70;1.20;;;;;;;;;;5072360;28;20119;-56
2023/10/25 05:51:57;;;;;;;6.47;2.08;;;;;;;;;;5073719;28;20501;-56
2023/10/25 05:54:23;;;;;;;4.15;1.10;;;;;;;;;;5074013;28;20028;-56
2023/10/25 05:56:49;;;;;;;2.67;1.10;;;;;;;;;;5054712;28;20047;-56
2023/10/25 05:59:15;;;;;;;5.20;1.20;;;;;;;;;;5073675;28;20063;-56
2023/10/25 06:01:48;;;;;;;7.38;1.60;;;;;;;;;;5073683;28;20031;-56
2023/10/25 06:04:15;;;;;;;4.32;1.20;;;;;;;;;;5073384;28;20028;-57
2023/10/25 06:06:42;;;;;;;8.15;1.50;;;;;;;;;;5073538;28;20039;-56
2023/10/25 06:09:08;;;;;;;4.93;1.42;;;;;;;;;;5073407;28;20029;-57
2023/10/25 06:11:35;;;;;;;7.50;1.20;;;;;;;;;;5073332;28;20027;-56
2023/10/25 06:14:01;;;;;;;2.42;1.00;;;33.10;94.40;;;;;;5054369;28;20079;-57
2023/10/25 06:16:26;;;;;;;2.35;0.98;;;33.20;94.00;;;;;;5073144;28;20020;-56
2023/10/25 06:18:52;;;;;;;3.22;1.13;;;33.10;96.70;;;;;;5073143;28;20024;-56
2023/10/25 06:21:18;;;;;;;6.75;1.40;;;;;;;;;;5073093;28;20027;-56
2023/10/25 06:23:44;;;;;;;3.08;1.40;;;;;;;;;;5073104;28;20119;-58
2023/10/25 06:26:10;;;;;;;2.17;1.27;;;34.10;95.00;;;;;;5073199;28;20030;-56
2023/10/25 06:28:36;;;;;;;3.47;1.30;;;33.90;96.60;;;;;;5073060;28;20474;-56
2023/10/25 06:31:02;;;;;;;4.43;0.90;;;33.70;94.00;;;;;;5073357;28;20031;-56
2023/10/25 06:33:27;;;;;;;5.25;1.10;;;33.60;94.10;;;;;;5053854;28;20037;-56
2023/10/25 06:35:54;;;;;;;2.85;1.13;;;;;;;;;;5072934;28;20143;-55
2023/10/25 06:38:20;;;;;;;3.90;1.20;;;34.30;90.00;;;;;;5072438;28;20461;-58
2023/10/25 06:40:46;;;;;;;2.40;0.90;;;;;;;;;;5072775;28;20074;-58
2023/10/25 06:43:12;;;;;;;5.50;1.30;;;;;;;;;;5073041;28;20107;-58
2023/10/25 06:45:38;;;;;;;2.92;1.10;;;;;;;;;;5072675;28;20391;-57
2023/10/25 06:48:05;;;;;;;6.25;1.50;;;;;;;;;;5071748;28;20025;-58
2023/10/25 06:50:31;;;;;;;4.10;1.10;;;;;;;;;;5072595;28;20127;-56
2023/10/25 06:52:57;;;;;;;3.38;1.20;;;;;;;;;;5053618;28;20040;-59
2023/10/25 06:55:23;;;;;;;3.65;1.85;;;;;;;;;;5072360;28;20069;-58
2023/10/25 06:57:50;;;;;;;4.03;1.35;;;;;;;;;;5072409;28;20032;-65
2023/10/25 07:00:16;;;;;;;2.65;1.52;;;36.20;86.00;;;;;;5072504;28;20033;-69
2023/10/25 07:02:52;;;;;;;3.22;1.63;;;36.00;85.30;;;;;;5072676;28;20021;-65
2023/10/25 07:05:20;;;;;;;2.88;1.40;;;;;;;;;;5053258;28;20519;-61
2023/10/25 07:07:49;;;;;;;3.20;1.50;;;37.40;85.00;;;;;;5053557;28;20040;-61
2023/10/25 07:10:15;;;;;;;2.42;1.42;;;37.10;84.10;;;;;;5070724;28;20045;-62
2023/10/25 07:12:41;;;;;;;4.22;1.60;;;37.10;95.10;;;;;;5052867;28;20115;-61
2023/10/25 07:15:08;;;;;;;3.45;1.75;;;;;;;;;;5019098;28;20124;-72
2023/10/25 07:17:34;;;;;;;3.42;1.60;;;38.00;90.00;;;;;;5071413;28;20021;-61
2023/10/25 07:20:00;;;;;;;3.10;1.75;;;;;;;;;;5071811;28;20035;-59
2023/10/25 07:22:27;;;;;;;2.40;2.20;;;38.00;81.90;;;;;;5072188;28;20029;-60
2023/10/25 07:24:54;;;;;;;3.85;2.22;;;38.10;81.10;;;;;;5071814;28;20024;-62
2023/10/25 07:27:20;;;;;;;2.17;0.82;;;;;;;;;;5072080;28;20070;-60
2023/10/25 07:29:46;;;;;;;3.42;1.90;;;35.80;80.90;;;;;;5071723;28;20040;-60
2023/10/25 07:32:12;;;;;;;3.33;2.15;;;36.70;81.80;;;;;;5071649;28;20046;-61
2023/10/25 07:34:38;;;;;;;6.75;2.50;;;37.00;81.70;;;;;;5071053;28;20683;-61
2023/10/25 07:37:04;;;;;;;3.97;3.15;;;;;;;;;;5071601;28;20512;-57
2023/10/25 07:39:30;;;;;;;4.72;2.25;;;38.20;90.60;;;;;;5070617;28;20052;-61
2023/10/25 07:41:56;;;;;;;6.95;2.90;;;;;;;;;;5070697;28;20162;-60
2023/10/25 07:44:22;;;;;;;6.18;2.10;;;;;;;;;;5070410;28;20032;-58
2023/10/25 07:46:48;;;;;;;3.75;2.50;;;37.20;80.70;;;;;;5070667;28;20025;-60
2023/10/25 07:49:14;;;;;;;5.88;5.05;;;37.30;81.10;;;;;;5051177;28;20037;-60
2023/10/25 07:51:39;;;;;;;3.90;2.05;;;37.40;80.90;;;;;;5070537;28;20476;-61
2023/10/25 07:54:05;;;;;;;2.80;2.15;;;36.20;80.40;;;;;;5070631;28;20028;-59
2023/10/25 07:56:31;;;;;;;8.10;2.70;;;37.00;80.40;;;;;;5001674;28;20033;-60
2023/10/25 07:58:58;;;;;;;4.30;1.83;;;;;;;;;;5070380;28;20028;-57
2023/10/25 08:01:54;;;;;;;3.25;2.30;;;37.50;79.80;;;;;;5069986;28;20032;-62
2023/10/25 08:04:43;;;;;;;3.70;2.47;;;36.80;80.50;;;;;;5068093;28;20041;-60
2023/10/25 08:07:18;;;;;;;3.60;2.10;;;36.10;80.70;;;;;;5073947;28;20019;-62
2023/10/25 08:09:46;;;;;;;5.97;5.43;;;36.50;80.70;;;;;;5066678;28;20056;-65
2023/10/25 08:12:12;;;;;;;4.60;3.53;;;37.10;80.30;;;;;;5071161;28;20028;-62
2023/10/25 08:14:38;;;;;;;3.15;1.83;;;36.10;79.50;;;;;;5070712;28;20034;-57
2023/10/25 08:17:03;;;;;;;1.95;1.20;;;35.40;79.30;;;;;;5034876;28;20036;-63
2023/10/25 08:19:31;;;;;;;1.90;0.88;;;;;;;;;;5070929;28;20035;-60
2023/10/25 08:21:57;;;;;;;4.53;1.00;;;;;;;;;;5070996;28;20056;-64
2023/10/25 08:24:23;;;;;;;3.88;1.30;;;31.30;79.80;;;;;;5071008;28;20024;-61
2023/10/25 08:26:49;;;;;;;5.85;1.45;;;30.00;81.40;;;;;;5070776;28;20033;-60
2023/10/25 08:29:15;;;;;;;4.32;1.83;;;;;;;;;;5070348;28;20044;-60
2023/10/25 08:31:45;;;;;;;4.78;1.50;;;;;;;;;;5071019;28;20478;-60
2023/10/25 08:34:11;;;;;;;4.80;2.17;;;28.70;83.50;;;;;;5070634;28;20034;-62
2023/10/25 08:36:38;;;;;;;4.07;1.50;;;;;;;;;;5065002;28;20036;-59
2023/10/25 08:39:04;;;;;;;3.72;1.70;;;;;;;;;;5066967;28;20028;-58
2023/10/25 08:41:30;;;;;;;4.32;1.70;;;28.60;90.00;;;;;;5051102;28;20083;-58
2023/10/25 08:43:56;;;;;;;2.80;1.65;;;;;;;;;;5070323;28;20529;-58
2023/10/25 08:46:23;;;;;;;3.50;1.95;;;;;;;;;;5073844;28;20025;-58
2023/10/25 08:48:55;;;;;;;2.28;1.77;;;;;;;;;;5074419;28;20068;-58
2023/10/25 08:51:22;;;;;;;5.07;2.30;;;;;;;;;;5074623;28;20029;-58
2023/10/25 08:53:51;;;;;;;4.85;3.85;;;29.90;82.00;;;;;;5074493;28;20052;-58
2023/10/25 08:56:18;;;;;;;3.10;1.77;;;30.10;81.80;;;;;;5074740;28;20039;-58
2023/10/25 08:58:43;;;;;;;3.17;1.77;;;29.80;81.50;;;;;;5074596;28;20114;-58
2023/10/25 09:01:09;;;;;;;3.85;1.35;;;29.80;81.40;;;;;;5072129;28;20060;-58
2023/10/25 09:03:40;;;;;;;4.05;1.77;;;30.10;81.80;;;;;;5073502;28;20476;-58
2023/10/25 09:06:06;;;;;;;2.97;1.63;;;;;;;;;;5037764;28;20086;-58
2023/10/25 09:08:33;;;;;;;6.63;2.70;;;;;;;;;;5073385;28;20017;-58
2023/10/25 09:11:03;;;;;;;3.58;1.67;;;31.10;96.90;;;;;;5075405;28;20036;-59
2023/10/25 09:13:33;;;;;;;2.97;1.80;;;;;;;;;;5075776;28;20698;-59
2023/10/25 09:16:10;;;;;;;5.75;1.98;;;31.10;90.30;;;;;;5073347;28;20055;-59
2023/10/25 09:18:37;;;;;;;5.13;2.08;;;;;;;;;;5070574;28;20024;-59
2023/10/25 09:21:04;;;;;;;3.35;1.50;;;31.30;99.90;;;;;;5056216;28;20475;-60
2023/10/25 09:23:30;;;;;;;2.67;1.30;;;;;;;;;;5052568;28;20032;-60
2023/10/25 09:25:58;;;;;;;5.75;1.98;;;;;;;;;;5090114;28;20085;-60
2023/10/25 09:28:27;;;;;;;2.70;1.33;;;;;;;;;;5085834;28;20533;-60
2023/10/25 09:30:57;;;;;;;4.47;1.67;;;;;;;;;;5072392;28;20028;-60
2023/10/25 09:33:23;;;;;;;21.13;19.83;;;;;;;;;;5077122;28;20491;-60
2023/10/25 09:35:50;;;;;;;5.22;4.72;;;;;;;;;;5092770;28;20062;-60
2023/10/25 09:38:16;;;;;;;49.78;47.05;;;29.80;84.80;;;;;;5092383;28;20479;-58
2023/10/25 09:40:44;;;;;;;20.45;19.48;;;30.80;83.00;;;;;;5091765;28;20051;-57
2023/10/25 09:43:15;;;;;;;4.95;2.45;;;;;;;;;;5092485;28;20063;-58
2023/10/25 09:45:42;;;;;;;32.05;30.33;;;31.80;90.10;;;;;;5092685;28;20510;-57
2023/10/25 09:48:11;;;;;;;7.60;6.90;;;;;;;;;;5091161;28;20056;-58
2023/10/25 09:50:41;;;;;;;3.40;1.70;;;;;;;;;;5094019;28;20518;-59
2023/10/25 09:53:12;;;;;;;5.03;1.80;;;31.60;80.30;;;;;;5091447;28;20090;-59
2023/10/25 09:55:41;;;;;;;2.90;1.48;;;;;;;;;;5080164;28;20021;-59
2023/10/25 09:58:11;;;;;;;3.30;2.35;;;;;;;;;;5077189;28;20021;-59
2023/10/25 10:00:37;;;;;;;3.67;2.65;;;;;;;;;;5080711;28;20360;-59
2023/10/25 10:03:03;;;;;;;3.50;2.17;;;;;;;;;;5078330;28;20056;-59
2023/10/25 10:05:32;;;;;;;4.18;2.08;;;;;;;;;;5093324;28;20529;-58
2023/10/25 10:08:05;;;;;;;6.13;3.40;;;;;;;;;;5094544;28;20028;-59
2023/10/25 10:10:41;;;;;;;4.40;2.00;;;;;;;;;;5094081;28;20036;-59
2023/10/25 10:13:16;;;;;;;5.13;2.72;;;;;;;;;;5094238;28;20498;-59
2023/10/25 10:16:01;;;;;;;7.15;2.20;;;;;;;;;;5094393;28;20031;-59
2023/10/25 10:18:47;;;;;;;4.20;2.05;;;;;;;;;;5057206;28;20041;-59
2023/10/25 10:21:16;;;;;;;3.80;1.90;;;;;;;;;;5051449;28;20033;-59
2023/10/25 10:23:51;;;;;;;5.30;2.30;;;;;;;;;;5066420;28;20153;-59
2023/10/25 10:26:36;;;;;;;4.25;1.90;;;;;;;;;;5071349;28;20468;-59
2023/10/25 10:29:02;;;;;;;3.40;1.60;;;31.20;88.30;;;;;;5055833;28;20057;-59
2023/10/25 10:31:28;;;;;;;4.75;2.15;;;;;;;;;;5017526;28;20048;-60
2023/10/25 10:33:54;;;;;;;4.97;1.85;;;;;;;;;;5050634;28;20043;-59
2023/10/25 10:36:30;;;;;;;3.08;1.60;;;;;;;;;;5048208;28;20033;-60
2023/10/25 10:39:16;;;;;;;4.97;2.13;;;;;;;;;;5051303;28;20044;-59
2023/10/25 10:41:43;;;;;;;5.10;2.00;;;;;;;;;;5051000;28;20037;-59
2023/10/25 10:44:10;;;;;;;5.38;2.30;;;30.90;91.60;;;;;;5051207;28;20086;-60
2023/10/25 10:46:54;;;;;;;2.92;1.73;;;31.00;90.50;;;;;;5051063;28;20086;-59
2023/10/25 10:49:23;;;;;;;6.00;2.13;;;30.60;90.40;;;;;;5057916;28;20523;-59
2023/10/25 10:51:49;;;;;;;4.07;1.42;;;;;;;;;;5070638;28;20028;-60
2023/10/25 10:54:15;;;;;;;12.30;4.35;;;30.80;99.90;;;;;;5073312;28;20536;-59
2023/10/25 10:56:41;;;;;;;4.60;1.60;;;30.50;95.60;;;;;;5073263;28;20024;-59
2023/10/25 10:59:07;;;;;;;5.50;2.47;;;30.80;91.20;;;;;;5073612;28;20070;-59
2023/10/25 11:01:32;;;;;;;4.22;2.40;;;31.10;85.90;;;;;;5073117;28;20154;-59
2023/10/25 11:03:58;;;;;;;1.98;1.40;;;;;;;;;;5073096;28;20031;-59
2023/10/25 11:06:25;;;;;;;4.95;1.65;;;30.70;89.40;;;;;;5072977;28;20029;-59
2023/10/25 11:08:52;;;;;;;4.43;1.70;;;;;;;;;;5072124;28;20060;-59
2023/10/25 11:11:19;;;;;;;3.40;1.42;;;30.90;91.80;;;;;;5073118;28;20051;-59
2023/10/25 11:13:46;;;;;;;6.32;2.10;;;30.90;86.10;;;;;;5072380;28;20116;-59
2023/10/25 11:16:13;;;;;;;4.40;2.03;;;;;;;;;;5053929;28;20043;-59
2023/10/25 11:18:39;;;;;;;10.88;2.58;;;;;;;;;;5072863;28;20487;-60
2023/10/25 11:21:05;;;;;;;23.52;8.70;;;;;;;;;;5072976;28;20020;-59
2023/10/25 11:23:31;;;;;;;2.83;1.58;;;;;;;;;;5072991;28;20064;-59
2023/10/25 11:25:57;;;;;;;4.57;1.42;;;;;;;;;;5072657;28;20025;-59
2023/10/25 11:28:24;;;;;;;3.65;1.15;;;;;;;;;;5029542;28;20122;-59
2023/10/25 11:30:51;;;;;;;3.40;1.88;;;;;;;;;;5029887;28;20049;-59
2023/10/25 11:33:17;;;;;;;2.63;1.40;;;;;;;;;;5030048;28;20038;-59
2023/10/25 11:35:43;;;;;;;5.78;1.45;;;;;;;;;;5030212;28;20037;-60
2023/10/25 11:38:10;;;;;;;9.35;4.25;;;29.90;99.90;;;;;;5030352;28;20037;-58
2023/10/25 11:40:43;;;;;;;5.63;2.40;;;29.80;86.90;;;;;;5028815;28;20049;-55
2023/10/25 11:43:10;;;;;;;17.90;13.18;;;29.60;87.30;;;;;;5025577;28;20398;-55
2023/10/25 11:45:37;;;;;;;8.10;2.90;;;29.50;88.00;;;;;;5029983;28;20124;-59
2023/10/25 11:48:03;;;;;;;7.47;2.80;;;;;;;;;;5030086;28;20075;-57
2023/10/25 11:50:29;;;;;;;7.13;1.33;;;29.60;88.00;;;;;;5029947;28;20041;-59
2023/10/25 11:52:58;;;;;;;3.83;1.30;;;29.80;88.10;;;;;;5029864;28;20040;-57
2023/10/25 11:55:25;;;;;;;20.60;7.05;;;29.60;87.40;;;;;;5029230;28;20033;-59
2023/10/25 11:57:51;;;;;;;3.67;1.40;;;29.20;87.60;;;;;;5029267;28;20025;-61
2023/10/25 12:00:17;;;;;;;5.60;1.52;;;29.00;99.90;;;;;;5063877;28;20468;-61
2023/10/25 12:02:44;;;;;;;4.65;1.60;;;;;;;;;;5069944;28;20087;-58
2023/10/25 12:05:10;;;;;;;4.20;1.83;;;;;;;;;;5020094;28;20118;-56
2023/10/25 12:07:36;;;;;;;3.42;1.23;;;29.40;99.90;;;;;;5072118;28;20021;-58
2023/10/25 12:10:04;;;;;;;4.25;1.15;;;29.50;88.50;;;;;;5071861;28;20035;-58
2023/10/25 12:12:30;;;;;;;6.05;3.95;;;29.50;88.10;;;;;;5072030;28;20040;-58
2023/10/25 12:14:56;;;;;;;2.78;1.35;;;29.50;86.20;;;;;;5071861;28;20024;-58
2023/10/25 12:17:23;;;;;;;7.90;1.58;;;29.90;88.10;;;;;;5071953;28;20032;-58
2023/10/25 12:19:51;;;;;;;4.25;2.10;;;30.40;87.90;;;;;;5071967;28;20422;-58
2023/10/25 12:22:18;;;;;;;4.60;1.35;;;29.80;86.60;;;;;;5072317;28;20448;-58
2023/10/25 12:24:47;;;;;;;4.50;1.60;;;30.20;87.60;;;;;;5072013;28;20108;-58
2023/10/25 12:27:14;;;;;;;4.55;1.15;;;;;;;;;;5072111;28;20388;-58
2023/10/25 12:29:40;;;;;;;4.32;1.52;;;;;;;;;;5069666;28;20048;-58
2023/10/25 12:32:06;;;;;;;5.50;1.38;;;;;;;;;;5072004;28;20028;-58
2023/10/25 12:34:33;;;;;;;25.88;12.65;;;;;;;;;;5071798;28;20039;-58
2023/10/25 12:36:59;;;;;;;6.75;2.47;;;;;;;;;;5071821;28;20025;-58
2023/10/25 12:39:26;;;;;;;3.50;1.60;;;;;;;;;;5071293;28;20492;-58
2023/10/25 12:41:53;;;;;;;3.20;1.48;;;;;;;;;;5069409;28;20049;-58
2023/10/25 12:44:20;;;;;;;6.72;1.23;;;;;;;;;;5071721;28;20112;-58
2023/10/25 12:46:46;;;;;;;4.97;1.65;;;;;;;;;;5071726;28;20024;-58
2023/10/25 12:49:18;;;;;;;2.25;1.30;;;;;;;;;;5071503;28;20448;-58
2023/10/25 12:51:44;;;;;;;4.93;2.10;;;30.50;95.00;;;;;;5071676;28;20066;-57
2023/10/25 12:54:10;;;;;;;3.13;1.60;;;30.30;94.30;;;;;;5071858;28;20039;-58
2023/10/25 12:56:37;;;;;;;2.78;1.20;;;;;;;;;;5071618;28;20405;-58
2023/10/25 12:59:03;;;;;;;4.90;1.42;;;29.30;95.90;;;;;;5071422;28;20028;-58
2023/10/25 13:01:29;;;;;;;7.05;1.55;;;;;;;;;;5069452;28;20052;-57
2023/10/25 13:03:55;;;;;;;3.95;1.35;;;;;;;;;;5071430;28;20075;-59
2023/10/25 13:06:21;;;;;;;3.05;1.70;;;;;;;;;;5071521;28;20036;-57
2023/10/25 13:08:48;;;;;;;2.88;1.10;;;28.90;99.90;;;;;;5071533;28;20025;-59
2023/10/25 13:11:14;;;;;;;7.15;1.20;;;;;;;;;;5071607;28;20049;-58
2023/10/25 13:13:40;;;;;;;3.33;1.17;;;29.60;87.60;;;;;;5071764;28;20033;-58
2023/10/25 13:16:06;;;;;;;4.60;1.52;;;;;;;;;;5071520;28;20044;-57
2023/10/25 13:18:32;;;;;;;3.00;1.30;;;;;;;;;;5071354;28;20047;-57